Elmwood, TN

4:35 PM CST on December 27, 2014 (GMT -0600)
Smyrna | Change Station
CLOSE
Current Station
Airport
Location: Smyrna,
Elevation: 545 ft
Nearby Weather Stations

Elev 545 ft 36.01 °N, 86.52 °W | Updated 17 minutes ago

Rain
Rain
48 °F
Feels Like 48 °F
N
5
Wind Variable Wind from SSE

Today
High -- | Low -- °F
--% Chance of Precip.
Yesterday
High -- | Low -- °F
Precip. -- in
6:53 AM 4:35 PM
Waxing Crescent, 40% visible
Pressure 30.15 in
Visibility 4.0 miles
Clouds Mostly Cloudy 2500 ft
Overcast 3400 ft
Dew Point 46 °F
Humidity 93%
Rainfall 0.16 in
Snow Depth Not available.
UV 0 out of 12
Pollen .10 out of 12
Air Quality Not available.
Flu Activity Not available.
SPECI KMQY 272218Z 16004KT 4SM -RA BR BKN025 OVC034 09/08 A3015 RMK AO2 P0003

More Conditions Fewer Conditions

Pressure 30.15 in
Visibility 4.0 miles
Clouds Mostly Cloudy 2500 ft
Overcast 3400 ft
Dew Point 46 °F
Humidity 93%
Rainfall 0.16 in
Snow Depth Not available.
UV 0 out of 12
Pollen .10 out of 12
Air Quality Not available.
Flu Activity Not available.
SPECI KMQY 272218Z 16004KT 4SM -RA BR BKN025 OVC034 09/08 A3015 RMK AO2 P0003

More Conditions Fewer Conditions

10-Day Weather Forecast

Almanac

Astronomy

Dec. 27, 2014 Rise Set
Actual Time
Civil Twilight
Nautical Twilight
Astronomical Twilight
Moon
Length of Visible Light
Length of Day
Tomorrow will be .
, % of the Moon is Illuminated

Today's Extremes

State Highs State Lows

Community

WunderPhotos

Upload Photos

1,781,095 photos uploaded!

WunderBlogs® & News

Nearby

Air Quality

  Air Quality AQ Index Pollutant
Not available.

Snow Depth

Station Depth Elevation

Earthquake Activity

City Distance Mag. Time & Date
Minimum magnitude displayed is 2.5.

Coastal Water Temperatures

Place Temperature

Nearby Weather Stations